sensor_id;sensor_type;location;lat;lon;timestamp;P1;durP1;ratioP1;P2;durP2;ratioP2
9324;SDS011;4701;51.566;6.776;2023-07-30T05:14:02;9.40;;;4.70;;
9324;SDS011;4701;51.566;6.776;2023-07-30T05:17:04;12.37;;;4.40;;
9324;SDS011;4701;51.566;6.776;2023-07-30T05:20:07;10.10;;;4.17;;
9324;SDS011;4701;51.566;6.776;2023-07-30T05:23:09;11.53;;;4.70;;
9324;SDS011;4701;51.566;6.776;2023-07-30T05:26:11;13.83;;;5.30;;
9324;SDS011;4701;51.566;6.776;2023-07-30T05:29:14;15.20;;;5.70;;
9324;SDS011;4701;51.566;6.776;2023-07-30T05:32:15;10.97;;;5.43;;
9324;SDS011;4701;51.566;6.776;2023-07-30T05:35:17;11.60;;;4.77;;
9324;SDS011;4701;51.566;6.776;2023-07-30T05:38:19;9.17;;;5.47;;
9324;SDS011;4701;51.566;6.776;2023-07-30T05:41:21;12.23;;;5.40;;
9324;SDS011;4701;51.566;6.776;2023-07-30T05:44:24;13.77;;;5.53;;
9324;SDS011;4701;51.566;6.776;2023-07-30T05:47:25;16.03;;;5.93;;
9324;SDS011;4701;51.566;6.776;2023-07-30T05:50:27;10.93;;;5.20;;
9324;SDS011;4701;51.566;6.776;2023-07-30T05:53:29;16.17;;;6.60;;
9324;SDS011;4701;51.566;6.776;2023-07-30T05:56:31;11.10;;;6.13;;
9324;SDS011;4701;51.566;6.776;2023-07-30T05:59:34;12.03;;;6.20;;
9324;SDS011;4701;51.566;6.776;2023-07-30T06:02:36;17.50;;;7.07;;
9324;SDS011;4701;51.566;6.776;2023-07-30T06:05:38;13.83;;;6.00;;
9324;SDS011;4701;51.566;6.776;2023-07-30T06:08:41;12.50;;;6.20;;
9324;SDS011;4701;51.566;6.776;2023-07-30T06:11:43;14.30;;;5.90;;
9324;SDS011;4701;51.566;6.776;2023-07-30T06:14:46;14.50;;;6.10;;
9324;SDS011;4701;51.566;6.776;2023-07-30T06:17:47;14.90;;;5.67;;
9324;SDS011;4701;51.566;6.776;2023-07-30T06:20:49;10.37;;;5.40;;
9324;SDS011;4701;51.566;6.776;2023-07-30T06:23:50;13.90;;;6.10;;
9324;SDS011;4701;51.566;6.776;2023-07-30T06:26:52;11.37;;;5.43;;
9324;SDS011;4701;51.566;6.776;2023-07-30T06:29:55;11.37;;;5.43;;
9324;SDS011;4701;51.566;6.776;2023-07-30T06:32:56;13.00;;;5.07;;
9324;SDS011;4701;51.566;6.776;2023-07-30T06:35:58;15.37;;;5.10;;
9324;SDS011;4701;51.566;6.776;2023-07-30T06:39:00;15.07;;;5.23;;
9324;SDS011;4701;51.566;6.776;2023-07-30T06:42:02;11.93;;;4.50;;
9324;SDS011;4701;51.566;6.776;2023-07-30T06:45:05;12.90;;;4.77;;
9324;SDS011;4701;51.566;6.776;2023-07-30T06:48:08;9.33;;;4.60;;
9324;SDS011;4701;51.566;6.776;2023-07-30T06:51:10;8.83;;;4.23;;
9324;SDS011;4701;51.566;6.776;2023-07-30T06:54:12;9.77;;;4.40;;
9324;SDS011;4701;51.566;6.776;2023-07-30T06:57:14;8.40;;;3.90;;
9324;SDS011;4701;51.566;6.776;2023-07-30T07:00:17;9.53;;;4.27;;
9324;SDS011;4701;51.566;6.776;2023-07-30T07:03:21;7.30;;;3.93;;
9324;SDS011;4701;51.566;6.776;2023-07-30T07:06:23;9.87;;;4.40;;
9324;SDS011;4701;51.566;6.776;2023-07-30T07:09:24;8.03;;;3.50;;
9324;SDS011;4701;51.566;6.776;2023-07-30T07:12:26;7.77;;;3.23;;
9324;SDS011;4701;51.566;6.776;2023-07-30T07:15:29;10.07;;;3.53;;
9324;SDS011;4701;51.566;6.776;2023-07-30T07:18:31;7.27;;;3.20;;
9324;SDS011;4701;51.566;6.776;2023-07-30T07:21:32;9.80;;;2.97;;
9324;SDS011;4701;51.566;6.776;2023-07-30T07:24:34;10.03;;;3.43;;
9324;SDS011;4701;51.566;6.776;2023-07-30T07:27:35;10.20;;;3.20;;
9324;SDS011;4701;51.566;6.776;2023-07-30T07:30:38;7.63;;;2.60;;
9324;SDS011;4701;51.566;6.776;2023-07-30T07:33:40;9.47;;;2.60;;
9324;SDS011;4701;51.566;6.776;2023-07-30T07:36:42;7.67;;;2.70;;
9324;SDS011;4701;51.566;6.776;2023-07-30T07:39:43;6.90;;;2.83;;
9324;SDS011;4701;51.566;6.776;2023-07-30T07:42:45;10.20;;;2.93;;
9324;SDS011;4701;51.566;6.776;2023-07-30T07:45:48;11.43;;;2.90;;
9324;SDS011;4701;51.566;6.776;2023-07-30T07:48:50;8.63;;;3.43;;
9324;SDS011;4701;51.566;6.776;2023-07-30T07:51:51;19.43;;;6.63;;
9324;SDS011;4701;51.566;6.776;2023-07-30T07:54:53;14.33;;;5.40;;
9324;SDS011;4701;51.566;6.776;2023-07-30T07:57:55;12.40;;;4.07;;
9324;SDS011;4701;51.566;6.776;2023-07-30T08:00:58;10.37;;;3.73;;
9324;SDS011;4701;51.566;6.776;2023-07-30T08:03:59;9.23;;;3.50;;
9324;SDS011;4701;51.566;6.776;2023-07-30T08:07:01;9.10;;;4.00;;
9324;SDS011;4701;51.566;6.776;2023-07-30T08:10:04;7.43;;;3.83;;
9324;SDS011;4701;51.566;6.776;2023-07-30T08:13:06;8.43;;;3.87;;
9324;SDS011;4701;51.566;6.776;2023-07-30T08:16:09;10.00;;;3.57;;
9324;SDS011;4701;51.566;6.776;2023-07-30T08:19:10;8.23;;;3.37;;
9324;SDS011;4701;51.566;6.776;2023-07-30T08:22:12;7.70;;;3.33;;
9324;SDS011;4701;51.566;6.776;2023-07-30T08:25:14;8.23;;;3.53;;
9324;SDS011;4701;51.566;6.776;2023-07-30T08:28:16;11.30;;;5.13;;
9324;SDS011;4701;51.566;6.776;2023-07-30T08:31:19;12.93;;;6.10;;
9324;SDS011;4701;51.566;6.776;2023-07-30T08:34:21;9.73;;;3.70;;
9324;SDS011;4701;51.566;6.776;2023-07-30T08:37:23;12.17;;;3.40;;
9324;SDS011;4701;51.566;6.776;2023-07-30T08:40:24;9.00;;;3.30;;
9324;SDS011;4701;51.566;6.776;2023-07-30T08:43:26;12.73;;;3.30;;
9324;SDS011;4701;51.566;6.776;2023-07-30T08:46:29;10.13;;;3.37;;
9324;SDS011;4701;51.566;6.776;2023-07-30T08:49:31;9.83;;;3.80;;
9324;SDS011;4701;51.566;6.776;2023-07-30T08:52:33;10.17;;;3.40;;
9324;SDS011;4701;51.566;6.776;2023-07-30T08:55:37;8.90;;;3.60;;
9324;SDS011;4701;51.566;6.776;2023-07-30T08:58:41;10.53;;;3.10;;
